Time;durP1;ratioP1;P1;durP2;ratioP2;P2;SDS_P1;SDS_P2;PMS_P1;PMS_P2;Temp;Humidity;BMP_temperature;BMP_pressure;BME280_temperature;BME280_humidity;BME280_pressure;Samples;Min_cycle;Max_cycle;Signal;HPM_P1;HPM_P2
2023/06/23 00:00:00;;;;;;;3.15;2.50;;;;;;;-145.69;nan;52198.81;5074192;28;20237;-88
2023/06/23 00:02:28;;;;;;;3.75;2.33;;;;;;;-145.69;nan;52171.09;5074097;28;20202;-89
2023/06/23 00:04:55;;;;;;;4.88;2.53;;;;;;;-145.69;nan;52186.94;5073392;28;20213;-88
2023/06/23 00:07:22;;;;;;;7.32;2.67;;;;;;;-145.69;nan;52194.88;5073318;28;20219;-89
2023/06/23 00:09:48;;;;;;;3.40;2.30;;;;;;;-145.69;nan;52218.63;5073827;28;20697;-89
2023/06/23 00:12:15;;;;;;;4.45;2.60;;;;;;;-145.69;nan;52210.72;5073936;28;20638;-88
2023/06/23 00:14:42;;;;;;;5.20;2.10;;;;;;;-145.69;nan;52214.66;5074036;28;20198;-89
2023/06/23 00:17:08;;;;;;;2.78;2.20;;;;;;;-145.69;nan;52206.75;5074418;28;20202;-90
2023/06/23 00:19:38;;;;;;;2.90;1.90;;;;;;;-145.69;nan;52204.75;5074176;28;20717;-90
2023/06/23 00:22:05;;;;;;;5.15;1.92;;;;;;;-145.69;nan;52230.50;5074325;28;20202;-90
2023/06/23 00:24:32;;;;;;;3.55;2.08;;;;;;;-145.69;nan;52232.50;5074309;28;20210;-90
2023/06/23 00:26:58;;;;;;;3.53;2.10;;;;;;;-145.69;nan;52216.66;5074651;28;20240;-91
2023/06/23 00:29:25;;;;;;;1.98;1.63;;;;;;;-145.69;nan;52248.34;5077905;28;20202;-92
2023/06/23 00:31:52;;;;;;;3.22;1.90;;;;;;;-145.69;nan;52218.63;5078364;28;20263;-92
2023/06/23 00:34:18;;;;;;;3.08;2.00;;;;;;;-145.69;nan;52206.75;5078291;28;20205;-90
2023/06/23 00:36:46;;;;;;;5.57;2.00;;;;;;;-145.69;nan;52206.75;5078245;28;20230;-91
2023/06/23 00:39:13;;;;;;;3.17;1.85;;;;;;;-145.69;nan;52244.38;5078215;28;20226;-90
2023/06/23 00:41:40;;;;;;;3.65;1.42;;;;;;;-145.69;nan;52228.53;5078057;28;20202;-90
2023/06/23 00:44:08;;;;;;;2.00;1.48;;;;;;;-145.69;nan;52226.53;5077719;28;20720;-89
2023/06/23 00:46:35;;;;;;;2.05;1.52;;;;;;;-145.69;nan;52198.81;5078158;28;20309;-89
2023/06/23 00:49:02;;;;;;;2.08;1.33;;;;;;;-145.69;nan;52226.53;5077843;28;20309;-89
2023/06/23 00:51:31;;;;;;;1.65;1.17;;;;;;;-145.69;nan;52232.50;5077793;28;20203;-89
2023/06/23 00:53:59;;;;;;;1.70;1.35;;;;;;;-145.69;nan;52230.50;5078202;28;20221;-89
2023/06/23 00:56:26;;;;;;;2.78;1.30;;;;;;;-145.69;nan;52250.31;5077955;28;20664;-89
2023/06/23 00:58:54;;;;;;;3.58;1.40;;;;;;;-145.69;nan;52250.31;5077730;28;20221;-89
2023/06/23 01:01:21;;;;;;;2.67;1.17;;;;;;;-145.69;nan;52218.63;5077676;28;20205;-91
2023/06/23 01:03:48;;;;;;;2.05;1.48;;;;;;;-145.69;nan;52206.75;5077725;28;20211;-91
2023/06/23 01:06:19;;;;;;;1.02;0.90;;;;;;;-145.69;nan;52238.44;5077446;28;20195;-90
2023/06/23 01:08:55;;;;;;;1.85;1.05;;;;;;;-145.69;nan;52244.38;5078359;28;20198;-91
2023/06/23 01:11:29;;;;;;;3.95;1.58;;;;;;;-145.69;nan;52244.38;5077290;28;20443;-92
2023/06/23 01:14:01;;;;;;;3.58;1.70;;;;;;;-145.69;nan;52262.19;5077726;28;20199;-93
2023/06/23 01:16:31;;;;;;;5.72;1.75;;;;;;;-145.69;nan;52204.75;5077656;28;20289;-93
2023/06/23 01:19:09;;;;;;;4.07;1.83;;;;;;;-145.69;nan;52246.34;5077648;28;20692;-93
2023/06/23 01:21:49;;;;;;;6.32;1.85;;;;;;;-145.69;nan;52230.50;5077797;28;20203;-92
2023/06/23 01:24:36;;;;;;;3.10;2.15;;;;;;;-145.69;nan;52242.38;5077459;28;20307;-92
2023/06/23 01:27:42;;;;;;;11.90;2.40;;;;;;;-145.69;nan;52244.38;5077298;28;20693;-93
2023/06/23 01:30:15;;;;;;;4.22;1.90;;;;;;;-145.69;nan;52260.22;5075942;28;20297;-91
2023/06/23 01:32:46;;;;;;;2.65;1.90;;;;;;;-145.69;nan;52258.22;5077486;28;20199;-92
2023/06/23 01:35:20;;;;;;;2.30;1.92;;;;;;;-145.69;nan;52264.16;5077338;28;20241;-92
2023/06/23 01:37:51;;;;;;;2.95;1.65;;;;;;;-145.69;nan;52287.94;5077305;28;20589;-90
2023/06/23 01:40:22;;;;;;;3.50;2.22;;;;;;;-145.69;nan;52266.16;5075835;28;20214;-91
2023/06/23 01:42:52;;;;;;;4.63;2.03;;;;;;;-145.69;nan;52242.38;5076833;28;20203;-89
2023/06/23 01:45:23;;;;;;;3.17;2.13;;;;;;;-145.69;nan;52264.16;5076605;28;20205;-88
2023/06/23 01:47:50;;;;;;;6.05;2.80;;;;;;;-145.69;nan;52270.13;5075875;28;20693;-90
2023/06/23 01:50:19;;;;;;;4.45;2.92;;;;;;;-145.69;nan;52234.47;5076508;28;20206;-89
2023/06/23 01:52:47;;;;;;;4.22;3.10;;;;;;;-145.69;nan;52289.91;5076484;28;20198;-88
2023/06/23 01:55:16;;;;;;;3.65;2.83;;;;;;;-145.69;nan;52254.28;5067539;28;20217;-90
2023/06/23 01:57:44;;;;;;;5.22;3.38;;;;;;;-145.69;nan;52260.22;5076397;28;20198;-89
2023/06/23 02:00:18;;;;;;;4.85;3.65;;;;;;;-145.69;nan;52272.09;5076414;28;20202;-89
2023/06/23 02:02:48;;;;;;;5.85;3.47;;;;;;;-145.69;nan;52282.00;5076432;28;20202;-89
2023/06/23 02:05:17;;;;;;;5.30;3.33;;;;;;;-145.69;nan;52313.69;5076563;28;20218;-90
2023/06/23 02:07:48;;;;;;;5.30;3.08;;;;;;;-145.69;nan;52248.34;5076124;28;20226;-88
2023/06/23 02:10:17;;;;;;;5.82;3.20;;;;;;;-145.69;nan;52285.97;5076471;28;20621;-89
2023/06/23 02:12:45;;;;;;;11.63;3.58;;;;;;;-145.69;nan;52293.88;5076334;28;20248;-89
2023/06/23 02:15:15;;;;;;;4.72;3.50;;;;;;;-145.69;nan;52274.06;5075978;28;20197;-89
2023/06/23 02:17:43;;;;;;;6.38;3.33;;;;;;;-145.69;nan;52289.91;5076060;28;20642;-89
2023/06/23 02:20:15;;;;;;;9.00;3.13;;;;;;;-145.69;nan;52266.16;5075855;28;20286;-89
2023/06/23 02:22:46;;;;;;;4.82;3.10;;;;;;;-145.69;nan;52270.13;5076146;28;20249;-89
2023/06/23 02:25:13;;;;;;;5.32;3.10;;;;;;;-145.69;nan;52282.00;5075855;28;20201;-89
2023/06/23 02:27:41;;;;;;;4.85;3.08;;;;;;;-145.69;nan;52268.13;5075591;28;20230;-90
2023/06/23 02:30:09;;;;;;;5.93;3.50;;;;;;;-145.69;nan;52285.97;5075928;28;20203;-90
2023/06/23 02:32:36;;;;;;;5.85;3.95;;;;;;;-145.69;nan;52276.06;5076028;28;20206;-90
2023/06/23 02:35:03;;;;;;;7.25;3.92;;;;;;;-145.69;nan;52283.97;5075891;28;20207;-89
2023/06/23 02:37:34;;;;;;;5.22;4.03;;;;;;;-145.69;nan;52287.94;5076059;28;20845;-91
2023/06/23 02:40:06;;;;;;;6.20;3.33;;;;;;;-145.69;nan;52280.00;5075176;28;20199;-89
2023/06/23 02:42:37;;;;;;;7.85;3.35;;;;;;;-145.69;nan;52264.16;5075683;28;20203;-89
2023/06/23 02:45:09;;;;;;;9.38;4.25;;;;;;;-145.69;nan;52266.16;5075373;28;20653;-89
2023/06/23 02:47:38;;;;;;;8.93;3.53;;;;;;;-145.69;nan;52307.75;5075398;28;20645;-89
2023/06/23 02:50:11;;;;;;;6.20;4.25;;;;;;;-145.69;nan;52266.16;5074070;28;20272;-89
2023/06/23 02:52:44;;;;;;;6.82;4.57;;;;;;;-145.69;nan;52285.97;5075266;28;20665;-90
2023/06/23 02:55:13;;;;;;;8.45;5.50;;;;;;;-145.69;nan;52299.81;5075232;28;20722;-89
2023/06/23 02:57:42;;;;;;;8.43;5.28;;;;;;;-145.69;nan;52291.91;5075225;28;20201;-90
2023/06/23 03:00:13;;;;;;;7.43;5.10;;;;;;;-145.69;nan;52289.91;5075417;28;20699;-89
2023/06/23 03:03:33;;;;;;;9.90;5.90;;;;;;;-145.69;nan;52309.72;5074775;28;20202;-90
2023/06/23 03:06:00;;;;;;;9.68;6.63;;;;;;;-145.69;nan;52266.16;5055318;28;20210;-90
2023/06/23 03:08:30;;;;;;;11.40;6.30;;;;;;;-145.69;nan;52282.00;5074016;28;20337;-90
2023/06/23 03:10:57;;;;;;;11.38;7.53;;;;;;;-145.69;nan;52252.28;5074411;28;20447;-89
2023/06/23 03:13:24;;;;;;;11.77;7.13;;;;;;;-145.69;nan;52252.28;5075292;28;20285;-91
2023/06/23 03:15:57;;;;;;;12.00;7.90;;;;;;;-145.69;nan;52289.91;5074799;28;20590;-90
2023/06/23 03:18:29;;;;;;;11.95;8.02;;;;;;;-145.69;nan;52264.16;5074778;28;20203;-91
2023/06/23 03:21:00;;;;;;;13.85;8.50;;;;;;;-145.69;nan;52307.75;5074582;28;20195;-91
2023/06/23 03:23:31;;;;;;;12.80;7.97;;;;;;;-145.69;nan;52285.97;5074641;28;20198;-90
2023/06/23 03:25:59;;;;;;;13.25;8.70;;;;;;;-145.69;nan;52313.69;5074538;28;20613;-91
2023/06/23 03:28:28;;;;;;;13.38;8.85;;;;;;;-145.69;nan;52305.75;5074884;28;20227;-91
2023/06/23 03:31:00;;;;;;;15.68;8.52;;;;;;;-145.69;nan;52274.06;5074783;28;20213;-91
2023/06/23 03:33:33;;;;;;;12.52;7.78;;;;;;;-145.69;nan;52313.69;5074400;28;20222;-90
2023/06/23 03:36:06;;;;;;;13.27;8.55;;;;;;;-145.69;nan;52305.75;5074467;28;20250;-89
2023/06/23 03:38:38;;;;;;;12.48;8.07;;;;;;;-145.69;nan;52293.88;5074746;28;20225;-91
2023/06/23 03:41:10;;;;;;;15.55;9.10;;;;;;;-145.69;nan;52285.97;5074605;28;20194;-90
2023/06/23 03:43:44;;;;;;;14.27;9.27;;;;;;;-145.69;nan;52254.28;5074848;28;20219;-90
2023/06/23 03:46:17;;;;;;;13.80;8.48;;;;;;;-145.69;nan;52307.75;5074883;28;20211;-89
2023/06/23 03:48:47;;;;;;;14.80;10.15;;;;;;;-145.69;nan;52291.91;5073312;28;20519;-90
2023/06/23 03:51:16;;;;;;;13.77;8.27;;;;;;;-145.69;nan;52274.06;5074412;28;20199;-91
2023/06/23 03:53:46;;;;;;;13.43;8.20;;;;;;;-145.69;nan;52282.00;5065902;28;20195;-90
2023/06/23 03:56:17;;;;;;;13.27;8.80;;;;;;;-145.69;nan;52293.88;5054610;28;20752;-90
2023/06/23 03:58:46;;;;;;;13.73;9.25;;;;;;;-145.69;nan;52307.75;5054398;28;20199;-89
2023/06/23 04:01:15;;;;;;;14.60;9.18;;;;;;;-145.69;nan;52287.94;5054436;28;20553;-90
2023/06/23 04:03:44;;;;;;;18.58;9.75;;;;;;;-145.69;nan;52262.19;5053225;28;20222;-89
2023/06/23 04:06:13;;;;;;;15.85;9.77;;;;;;;-145.69;nan;52276.06;5053940;28;20203;-89
2023/06/23 04:08:41;;;;;;;14.55;9.30;;;;;;;-145.69;nan;52321.59;5053927;28;20227;-89
2023/06/23 04:11:14;;;;;;;16.25;10.05;;;;;;;-145.69;nan;52270.13;5057934;28;20226;-89
2023/06/23 04:13:42;;;;;;;16.65;9.48;;;;;;;-145.69;nan;52333.47;5074044;28;20221;-89
2023/06/23 04:16:14;;;;;;;15.07;9.77;;;;;;;-145.69;nan;52285.97;5074108;28;20286;-90
2023/06/23 04:18:43;;;;;;;15.98;10.18;;;;;;;-145.69;nan;52313.69;5073880;28;20216;-89
2023/06/23 04:21:13;;;;;;;15.85;10.15;;;;;;;-145.69;nan;52283.97;5073168;28;20211;-88
2023/06/23 04:23:41;;;;;;;22.52;11.40;;;;;;;-145.69;nan;52303.78;5073829;28;20650;-88
2023/06/23 04:26:14;;;;;;;20.75;13.43;;;;;;;-145.69;nan;52309.72;5073121;28;20443;-89
2023/06/23 04:28:46;;;;;;;18.75;11.68;;;;;;;-145.69;nan;52274.06;5073577;28;20288;-89
2023/06/23 04:31:16;;;;;;;20.23;12.40;;;;;;;-145.69;nan;52289.91;5073940;28;20206;-87
2023/06/23 04:33:43;;;;;;;21.85;12.30;;;;;;;-145.69;nan;52287.94;5074051;28;20203;-88
2023/06/23 04:36:14;;;;;;;19.05;12.60;;;;;;;-145.69;nan;52278.03;5073929;28;20201;-86
2023/06/23 04:38:47;;;;;;;22.60;13.43;;;;;;;-145.69;nan;52305.75;5073929;28;20206;-89
2023/06/23 04:41:20;;;;;;;22.33;14.07;;;;;;;-145.69;nan;52266.16;5073898;28;20203;-89
2023/06/23 04:43:51;;;;;;;23.83;13.50;;;;;;;-145.69;nan;52283.97;5073907;28;20205;-88
2023/06/23 04:46:23;;;;;;;25.20;15.30;;;;;;;-145.69;nan;52274.06;5073880;28;20550;-88
2023/06/23 04:48:55;;;;;;;25.98;15.52;;;;;;;-145.69;nan;52317.66;5073565;28;20727;-89
2023/06/23 04:51:29;;;;;;;26.42;16.02;;;;;;;-145.69;nan;52270.13;5073684;28;20650;-90
2023/06/23 04:54:01;;;;;;;32.13;16.95;;;;;;;-145.69;nan;52301.81;5073861;28;20248;-89
2023/06/23 04:56:36;;;;;;;29.50;17.45;;;;;;;-145.69;nan;52299.81;5073477;28;20302;-90
2023/06/23 04:59:09;;;;;;;29.80;18.42;;;;;;;-145.69;nan;52297.84;5074065;28;20653;-89
2023/06/23 05:01:48;;;;;;;31.15;18.63;;;;;;;-145.69;nan;52305.75;5073859;28;20206;-89
2023/06/23 05:04:15;;;;;;;36.67;21.77;;;;;;;-145.69;nan;52268.13;5073160;28;20442;-90
2023/06/23 05:06:48;;;;;;;39.90;20.25;;;;;;;-145.69;nan;52289.91;5073421;28;20199;-88
2023/06/23 05:09:21;;;;;;;33.55;20.67;;;;;;;-145.69;nan;52333.47;5073388;28;20227;-89
2023/06/23 05:11:54;;;;;;;33.53;20.08;;;;;;;-145.69;nan;52285.97;5073602;28;20298;-89
2023/06/23 05:14:27;;;;;;;34.70;20.88;;;;;;;-145.69;nan;52274.06;5074683;28;20213;-88
2023/06/23 05:17:00;;;;;;;33.90;20.35;;;;;;;-145.69;nan;52289.91;5077175;28;20207;-89
2023/06/23 05:19:31;;;;;;;38.92;21.48;;;;;;;-145.69;nan;52283.97;5077220;28;20202;-90
2023/06/23 05:21:59;;;;;;;36.72;20.42;;;;;;;-145.69;nan;52246.34;5077444;28;20202;-89
2023/06/23 05:24:30;;;;;;;35.92;21.70;;;;;;;-145.69;nan;52303.78;5077324;28;20234;-89
2023/06/23 05:27:00;;;;;;;38.38;21.10;;;;;;;-145.69;nan;52282.00;5077325;28;20207;-89
2023/06/23 05:29:28;;;;;;;40.28;22.35;;;;;;;-145.69;nan;52317.66;5076696;28;20669;-89
2023/06/23 05:31:57;;;;;;;38.00;22.17;;;;;;;-145.69;nan;52313.69;5076773;28;20552;-89
2023/06/23 05:34:28;;;;;;;42.78;21.80;;;;;;;-145.69;nan;52285.97;5076780;28;20203;-89
2023/06/23 05:36:56;;;;;;;47.15;23.08;;;;;;;-145.69;nan;52295.84;5077186;28;20604;-88
2023/06/23 05:39:26;;;;;;;42.95;23.15;;;;;;;-145.69;nan;52293.88;5076641;28;20226;-89
2023/06/23 05:41:53;;;;;;;40.05;23.70;;;;;;;-145.69;nan;52289.91;5076545;28;20190;-89
2023/06/23 05:44:25;;;;;;;44.13;24.08;;;;;;;-145.69;nan;52289.91;5076617;28;20540;-88
2023/06/23 05:46:57;;;;;;;44.80;24.13;;;;;;;-145.69;nan;52282.00;5062654;28;20634;-88
2023/06/23 05:49:28;;;;;;;41.63;23.80;;;;;;;-145.69;nan;52289.91;5055786;28;20239;-88
2023/06/23 05:52:04;;;;;;;43.50;23.88;;;;;;;-145.69;nan;52278.03;5056562;28;20282;-87
2023/06/23 05:54:38;;;;;;;41.65;23.45;;;;;;;-145.69;nan;52270.13;5056299;28;20206;-88
2023/06/23 05:57:12;;;;;;;41.25;24.08;;;;;;;-145.69;nan;52291.91;5056489;28;20207;-88
2023/06/23 05:59:45;;;;;;;42.05;24.75;;;;;;;-145.69;nan;52274.06;5056411;28;20199;-88
2023/06/23 06:02:21;;;;;;;41.58;24.92;;;;;;;-145.69;nan;52299.81;5056212;28;20291;-88
2023/06/23 06:04:55;;;;;;;43.28;24.10;;;;;;;-145.69;nan;52276.06;5072319;28;20202;-88
2023/06/23 06:07:25;;;;;;;40.90;23.35;;;;;;;-145.69;nan;52274.06;5076278;28;20202;-88
2023/06/23 06:09:53;;;;;;;44.60;24.58;;;;;;;-145.69;nan;52274.06;5076224;28;20222;-88
2023/06/23 06:12:21;;;;;;;46.20;25.98;;;;;;;-145.69;nan;52305.75;5076212;28;20207;-88
2023/06/23 06:14:51;;;;;;;41.75;24.77;;;;;;;-145.69;nan;52278.03;5076465;28;20654;-88
2023/06/23 06:17:25;;;;;;;44.20;25.35;;;;;;;-145.69;nan;52321.59;5076423;28;20226;-88
2023/06/23 06:19:59;;;;;;;48.47;26.95;;;;;;;-145.69;nan;52278.03;5075908;28;20218;-89
2023/06/23 06:22:27;;;;;;;50.15;25.38;;;;;;;-145.69;nan;52268.13;5075820;28;20260;-88
2023/06/23 06:24:54;;;;;;;47.17;24.95;;;;;;;-145.69;nan;52254.28;5075475;28;20657;-88
2023/06/23 06:27:22;;;;;;;46.15;25.42;;;;;;;-145.69;nan;52266.16;5075216;28;20203;-88
2023/06/23 06:29:53;;;;;;;44.42;25.65;;;;;;;-145.69;nan;52250.31;5075388;28;20669;-88
2023/06/23 06:32:21;;;;;;;43.28;25.08;;;;;;;-145.69;nan;52278.03;5075876;28;20237;-89
2023/06/23 06:34:48;;;;;;;41.35;24.25;;;;;;;-145.69;nan;52274.06;5075562;28;20194;-90
2023/06/23 06:37:17;;;;;;;47.42;24.77;;;;;;;-145.69;nan;52278.03;5075674;28;20199;-89
2023/06/23 06:39:46;;;;;;;41.88;25.02;;;;;;;-145.69;nan;52268.13;5075757;28;20214;-88
2023/06/23 06:42:13;;;;;;;42.90;24.25;;;;;;;-145.69;nan;52270.13;5075572;28;20204;-89
2023/06/23 06:44:42;;;;;;;41.05;24.98;;;;;;;-145.69;nan;52228.53;5075399;28;20230;-88
2023/06/23 06:47:11;;;;;;;40.53;24.55;;;;;;;-145.69;nan;52268.13;5075270;28;20210;-89
2023/06/23 06:49:41;;;;;;;41.22;24.20;;;;;;;-145.69;nan;52252.28;5074813;28;20326;-87
2023/06/23 06:52:08;;;;;;;39.83;24.00;;;;;;;-145.69;nan;52238.44;5075281;28;20212;-88
2023/06/23 06:54:35;;;;;;;41.40;24.92;;;;;;;-145.69;nan;52250.31;5074998;28;20218;-88
2023/06/23 06:57:02;;;;;;;39.53;24.95;;;;;;;-145.69;nan;52212.69;5075154;28;20201;-87
2023/06/23 06:59:29;;;;;;;35.10;22.38;;;;;;;-145.69;nan;52238.44;5074886;28;20205;-91
2023/06/23 07:01:57;;;;;;;43.75;25.17;;;;;;;-145.69;nan;52252.28;5075452;28;20205;-90
2023/06/23 07:04:27;;;;;;;41.47;22.45;;;;;;;-145.69;nan;52240.41;5075337;28;20721;-90
2023/06/23 07:06:56;;;;;;;39.35;22.40;;;;;;;-145.69;nan;52198.81;5075411;28;20282;-88
2023/06/23 07:09:23;;;;;;;38.10;23.33;;;;;;;-145.69;nan;52230.50;5075475;28;20296;-90
2023/06/23 07:11:49;;;;;;;33.05;21.60;;;;;;;-145.69;nan;52218.63;5073906;28;20290;-89
2023/06/23 07:14:16;;;;;;;34.15;22.25;;;;;;;-145.69;nan;52220.59;5075226;28;20649;-90
2023/06/23 07:16:43;;;;;;;33.20;20.10;;;;;;;-145.69;nan;52220.59;5075075;28;20271;-89
2023/06/23 07:19:09;;;;;;;34.70;20.52;;;;;;;-145.69;nan;52274.06;5075000;28;20207;-86
2023/06/23 07:21:39;;;;;;;31.85;19.30;;;;;;;-145.69;nan;52244.38;5075125;28;20557;-90
2023/06/23 07:24:08;;;;;;;31.10;19.98;;;;;;;-145.69;nan;52246.34;5074875;28;20205;-89
2023/06/23 07:26:37;;;;;;;30.83;20.13;;;;;;;-145.69;nan;52230.50;5074901;28;20210;-89
2023/06/23 07:29:03;;;;;;;32.05;19.77;;;;;;;-145.69;nan;52224.56;5074593;28;20222;-89
2023/06/23 07:31:35;;;;;;;27.88;18.73;;;;;;;-145.69;nan;52240.41;5074623;28;20198;-89
2023/06/23 07:34:01;;;;;;;33.38;19.63;;;;;;;-145.69;nan;52246.34;5074889;28;20658;-90
2023/06/23 07:36:28;;;;;;;29.73;18.48;;;;;;;-145.69;nan;52246.34;5074882;28;20199;-92
2023/06/23 07:39:00;;;;;;;37.28;19.83;;;;;;;-145.69;nan;52236.44;5074503;28;20588;-89
2023/06/23 07:41:26;;;;;;;34.03;19.05;;;;;;;-145.69;nan;52250.31;5068453;28;20195;-90
2023/06/23 07:43:53;;;;;;;32.92;21.80;;;;;;;-145.69;nan;52234.47;5066408;28;20430;-92
2023/06/23 07:46:20;;;;;;;29.40;19.67;;;;;;;-145.69;nan;52218.63;5074600;28;20573;-90
2023/06/23 07:48:46;;;;;;;27.42;17.55;;;;;;;-145.69;nan;52224.56;5074049;28;20238;-90
2023/06/23 07:51:13;;;;;;;27.95;18.83;;;;;;;-145.69;nan;52222.59;5074749;28;20557;-91
2023/06/23 07:53:40;;;;;;;28.63;17.08;;;;;;;-145.69;nan;52194.88;5074699;28;20557;-89
2023/06/23 07:56:11;;;;;;;28.23;17.92;;;;;;;-145.69;nan;52182.97;5074715;28;20290;-90
2023/06/23 07:58:37;;;;;;;29.33;17.13;;;;;;;-145.69;nan;52171.09;5075148;28;20209;-91
2023/06/23 08:01:04;;;;;;;23.58;15.60;;;;;;;-145.69;nan;52210.72;5074708;28;20202;-91
2023/06/23 08:03:30;;;;;;;60.60;37.45;;;;;;;-145.69;nan;52202.78;5074734;28;20199;-90
2023/06/23 08:05:57;;;;;;;26.45;16.70;;;;;;;-145.69;nan;52198.81;5074059;28;20634;-91
2023/06/23 08:08:24;;;;;;;24.77;16.38;;;;;;;-145.69;nan;52202.78;5074277;28;20651;-91
2023/06/23 08:10:51;;;;;;;22.90;15.45;;;;;;;-145.69;nan;52202.78;5074631;28;20264;-91
2023/06/23 08:13:19;;;;;;;23.42;14.70;;;;;;;-145.69;nan;52188.91;5074538;28;20294;-90
2023/06/23 08:15:54;;;;;;;24.75;15.90;;;;;;;-145.69;nan;52218.63;5074775;28;20682;-91
2023/06/23 08:18:21;;;;;;;24.40;15.38;;;;;;;-145.69;nan;52202.78;5074579;28;20668;-91
2023/06/23 08:20:49;;;;;;;22.75;14.55;;;;;;;-145.69;nan;52196.84;5075000;28;20229;-91
2023/06/23 08:23:15;;;;;;;27.45;15.88;;;;;;;-145.69;nan;52173.09;5073658;28;20488;-91
2023/06/23 08:25:42;;;;;;;24.05;14.02;;;;;;;-145.69;nan;52234.47;5074969;28;20202;-91
2023/06/23 08:28:09;;;;;;;23.38;15.32;;;;;;;-145.69;nan;52208.72;5074760;28;20226;-89
2023/06/23 08:30:37;;;;;;;21.58;13.90;;;;;;;-145.69;nan;52208.72;5073924;28;20222;-89
2023/06/23 08:33:04;;;;;;;21.75;13.90;;;;;;;-145.69;nan;52238.44;5074119;28;20226;-91
2023/06/23 08:35:30;;;;;;;23.90;13.93;;;;;;;-145.69;nan;52184.97;5073820;28;20199;-91
2023/06/23 08:37:57;;;;;;;20.92;12.43;;;;;;;-145.69;nan;52194.88;5073608;28;20527;-91
2023/06/23 08:40:24;;;;;;;17.95;11.80;;;;;;;-145.69;nan;52194.88;5073431;28;20203;-92
2023/06/23 08:42:51;;;;;;;22.52;12.15;;;;;;;-145.69;nan;52196.84;5073526;28;20198;-90
2023/06/23 08:45:20;;;;;;;18.92;11.38;;;;;;;-145.69;nan;52175.06;5073877;28;20202;-92
2023/06/23 08:47:51;;;;;;;17.70;11.45;;;;;;;-145.69;nan;52200.81;5074046;28;20289;-92
2023/06/23 08:50:20;;;;;;;18.60;12.68;;;;;;;-145.69;nan;52184.97;5077146;28;20249;-89
2023/06/23 08:52:47;;;;;;;19.15;12.25;;;;;;;-145.69;nan;52190.91;5078513;28;20202;-91
2023/06/23 08:55:14;;;;;;;20.13;11.93;;;;;;;-145.69;nan;52198.81;5078359;28;20209;-92
2023/06/23 08:57:41;;;;;;;18.40;11.93;;;;;;;-145.69;nan;52194.88;5078127;28;20565;-91
2023/06/23 09:00:08;;;;;;;17.77;12.15;;;;;;;-145.69;nan;52167.13;5077448;28;20225;-90
2023/06/23 09:02:35;;;;;;;19.13;12.40;;;;;;;-145.69;nan;52188.91;5078146;28;20546;-90
2023/06/23 09:05:03;;;;;;;21.67;12.00;;;;;;;-145.69;nan;52226.53;5077421;28;20305;-91
2023/06/23 09:07:30;;;;;;;20.75;12.02;;;;;;;-145.69;nan;52194.88;5077513;28;20634;-90
2023/06/23 09:09:57;;;;;;;22.65;11.48;;;;;;;-145.69;nan;52212.69;5077474;28;20238;-91
2023/06/23 09:12:24;;;;;;;17.02;10.25;;;;;;;-145.69;nan;52192.88;5077550;28;20641;-91
2023/06/23 09:14:51;;;;;;;16.73;9.85;;;;;;;-145.69;nan;52208.72;5077391;28;20209;-89
2023/06/23 09:17:19;;;;;;;15.57;10.93;;;;;;;-145.69;nan;52186.94;5077857;28;20198;-91
2023/06/23 09:19:49;;;;;;;16.35;10.95;;;;;;;-145.69;nan;52190.91;5076874;28;20199;-90
2023/06/23 09:22:19;;;;;;;18.00;10.00;;;;;;;-145.69;nan;52198.81;5077381;28;20589;-91
2023/06/23 09:24:48;;;;;;;17.95;9.55;;;;;;;-145.69;nan;52186.94;5077756;28;20206;-88
2023/06/23 09:27:15;;;;;;;15.95;9.95;;;;;;;-145.69;nan;52202.78;5077031;28;20205;-91
2023/06/23 09:29:59;;;;;;;21.33;10.93;;;;;;;-145.69;nan;52216.66;5076433;28;20765;-91
2023/06/23 09:32:29;;;;;;;19.10;8.95;;;;;;;-145.69;nan;52159.22;5077533;28;20210;-90
2023/06/23 09:34:56;;;;;;;15.77;9.45;;;;;;;-145.69;nan;52214.66;5077218;28;20240;-91
2023/06/23 09:37:25;;;;;;;11.57;8.73;;;;;;;-145.69;nan;52171.09;5075099;28;20206;-89
2023/06/23 09:39:55;;;;;;;13.50;8.73;;;;;;;-145.69;nan;52202.78;5076712;28;20645;-87
2023/06/23 09:42:24;;;;;;;14.32;9.43;;;;;;;-145.69;nan;52192.88;5076749;28;20289;-91
2023/06/23 09:44:51;;;;;;;13.85;8.02;;;;;;;-145.69;nan;52194.88;5077091;28;20565;-90
2023/06/23 09:47:19;;;;;;;14.68;8.95;;;;;;;-145.69;nan;52173.09;5076782;28;20233;-88
2023/06/23 09:49:47;;;;;;;14.52;8.55;;;;;;;-145.69;nan;52184.97;5076551;28;20242;-91
2023/06/23 09:52:23;;;;;;;13.82;8.57;;;;;;;-145.69;nan;52147.34;5076751;28;20560;-89
2023/06/23 09:54:51;;;;;;;14.43;9.63;;;;;;;-145.69;nan;52188.91;5076178;28;20206;-88
2023/06/23 09:57:20;;;;;;;15.70;9.50;;;;;;;-145.69;nan;52181.00;5076537;28;20298;-91
2023/06/23 09:59:51;;;;;;;12.93;9.10;;;;;;;-145.69;nan;52171.09;5076037;28;20199;-90
2023/06/23 10:02:22;;;;;;;13.93;8.00;;;;;;;-145.69;nan;52210.72;5074784;28;20277;-90
2023/06/23 10:04:49;;;;;;;15.38;8.65;;;;;;;-145.69;nan;52163.19;5076222;28;20295;-90
2023/06/23 10:07:20;;;;;;;14.30;9.25;;;;;;;-145.69;nan;52179.03;5076406;28;20833;-89
2023/06/23 10:09:52;;;;;;;13.18;7.55;;;;;;;-145.69;nan;52210.72;5076361;28;20223;-89
2023/06/23 10:12:22;;;;;;;11.73;6.70;;;;;;;-145.69;nan;52186.94;5076701;28;20281;-89
2023/06/23 10:14:49;;;;;;;11.80;7.28;;;;;;;-145.69;nan;52159.22;5076069;28;20203;-91
2023/06/23 10:17:16;;;;;;;11.85;6.93;;;;;;;-145.69;nan;52186.94;5075386;28;20733;-88
2023/06/23 10:19:43;;;;;;;10.35;6.05;;;;;;;-145.69;nan;52167.13;5076644;28;20201;-86
2023/06/23 10:22:14;;;;;;;11.55;5.93;;;;;;;-145.69;nan;52161.19;5076334;28;20601;-89
2023/06/23 10:24:42;;;;;;;14.43;7.13;;;;;;;-145.69;nan;52155.25;5076399;28;20289;-90
2023/06/23 10:27:14;;;;;;;11.13;6.30;;;;;;;-145.69;nan;52190.91;5076075;28;20198;-89
2023/06/23 10:29:46;;;;;;;10.80;6.05;;;;;;;-145.69;nan;52165.16;5075392;28;20313;-90
2023/06/23 10:32:14;;;;;;;7.55;5.00;;;;;;;-145.69;nan;52186.94;5076384;28;20207;-89
2023/06/23 10:34:43;;;;;;;12.40;5.97;;;;;;;-145.69;nan;52141.41;5076261;28;20673;-89
2023/06/23 10:37:12;;;;;;;11.38;5.75;;;;;;;-145.69;nan;52163.19;5076340;28;20222;-91
2023/06/23 10:39:41;;;;;;;8.95;4.50;;;;;;;-145.69;nan;52167.13;5075840;28;20278;-89
2023/06/23 10:42:13;;;;;;;12.23;4.95;;;;;;;-145.69;nan;52179.03;5076144;28;20626;-88
2023/06/23 10:44:41;;;;;;;10.55;5.93;;;;;;;-145.69;nan;52167.13;5075613;28;20267;-87
2023/06/23 10:47:09;;;;;;;10.63;5.78;;;;;;;-145.69;nan;52175.06;5075160;28;20198;-87
2023/06/23 10:49:36;;;;;;;10.80;5.30;;;;;;;-145.69;nan;52159.22;5075122;28;20230;-86
2023/06/23 10:52:04;;;;;;;7.90;4.40;;;;;;;-145.69;nan;52171.09;5073863;28;20201;-87
2023/06/23 10:54:31;;;;;;;10.32;5.13;;;;;;;-145.69;nan;52139.41;5074959;28;20285;-88
2023/06/23 10:56:58;;;;;;;7.38;4.65;;;;;;;-145.69;nan;52155.25;5074609;28;20638;-84
2023/06/23 10:59:28;;;;;;;8.10;5.38;;;;;;;-145.69;nan;52151.28;5074731;28;20547;-84
2023/06/23 11:02:17;;;;;;;13.65;5.68;;;;;;;-145.69;nan;52161.19;5072645;28;20203;-85
2023/06/23 11:04:51;;;;;;;8.90;4.85;;;;;;;-145.69;nan;52155.25;5072040;28;20203;-81
2023/06/23 11:07:21;;;;;;;6.90;4.38;;;;;;;-145.69;nan;52151.28;5059288;28;20198;-90
2023/06/23 11:09:54;;;;;;;8.60;4.57;;;;;;;-145.69;nan;52149.31;5054337;28;20223;-84
2023/06/23 11:12:32;;;;;;;8.95;4.97;;;;;;;-145.69;nan;52151.28;5054097;28;20685;-86
2023/06/23 11:15:10;;;;;;;5.07;3.88;;;;;;;-145.69;nan;52151.28;5063329;28;20194;-86
2023/06/23 11:17:44;;;;;;;8.63;4.88;;;;;;;-145.69;nan;52155.25;5074142;28;20527;-86
2023/06/23 11:20:12;;;;;;;6.43;4.47;;;;;;;-145.69;nan;52129.50;5074058;28;20198;-85
2023/06/23 11:22:41;;;;;;;6.25;4.10;;;;;;;-145.69;nan;52145.34;5074275;28;20206;-88
2023/06/23 11:25:08;;;;;;;7.60;4.05;;;;;;;-145.69;nan;52143.38;5073418;28;20248;-85
2023/06/23 11:27:35;;;;;;;8.63;3.95;;;;;;;-145.69;nan;52119.63;5074120;28;20209;-86
2023/06/23 11:30:19;;;;;;;8.60;4.55;;;;;;;-145.69;nan;52147.34;5073925;28;20219;-88
2023/06/23 11:32:45;;;;;;;6.05;3.83;;;;;;;-145.69;nan;52139.41;5074367;28;20245;-88
2023/06/23 11:35:12;;;;;;;5.82;3.72;;;;;;;-145.69;nan;52163.19;5073894;28;20199;-87